createdAt,value
2023-04-23T00:00:12.494Z,25.15
2023-04-23T00:02:42.664Z,25.17
2023-04-23T00:05:12.964Z,25.40
2023-04-23T00:07:41.555Z,25.56
2023-04-23T00:10:10.884Z,25.50
2023-04-23T00:12:40.938Z,25.41
2023-04-23T00:15:10.098Z,25.71
2023-04-23T00:17:42.463Z,25.58
2023-04-23T00:20:11.121Z,25.87
2023-04-23T00:22:39.072Z,25.71
2023-04-23T00:25:07.366Z,25.66
2023-04-23T00:27:35.170Z,25.75
2023-04-23T00:30:04.687Z,25.73
2023-04-23T00:32:32.659Z,25.73
2023-04-23T00:35:01.108Z,25.82
2023-04-23T00:37:28.976Z,25.79
2023-04-23T00:39:56.732Z,25.79
2023-04-23T00:42:24.505Z,25.90
2023-04-23T00:44:52.786Z,25.90
2023-04-23T00:47:22.906Z,25.91
2023-04-23T00:49:53.259Z,25.96
2023-04-23T00:52:21.202Z,25.93
2023-04-23T00:54:48.955Z,26.13
2023-04-23T00:57:16.896Z,26.04
2023-04-23T00:59:44.909Z,25.88
2023-04-23T01:02:13.438Z,25.94
2023-04-23T01:04:45.061Z,26.14
2023-04-23T01:07:13.788Z,26.41
2023-04-23T01:09:42.002Z,26.21
2023-04-23T01:12:11.681Z,26.12
2023-04-23T01:14:39.794Z,26.20
2023-04-23T01:17:09.622Z,26.21
2023-04-23T01:19:37.859Z,26.31
2023-04-23T01:22:10.565Z,26.50
2023-04-23T01:24:39.810Z,26.31
2023-04-23T01:27:07.831Z,26.32
2023-04-23T01:29:36.700Z,26.49
2023-04-23T01:32:04.870Z,26.54
2023-04-23T01:34:33.783Z,26.27
2023-04-23T01:37:03.391Z,26.49
2023-04-23T01:39:32.801Z,26.59
2023-04-23T01:42:01.441Z,26.68
2023-04-23T01:44:29.743Z,26.74
2023-04-23T01:46:57.720Z,26.79
2023-04-23T01:49:25.598Z,26.89
2023-04-23T01:51:53.777Z,26.89
2023-04-23T01:54:21.554Z,26.86
2023-04-23T01:56:54.723Z,26.70
2023-04-23T01:59:23.220Z,26.86
2023-04-23T02:01:51.534Z,26.71
2023-04-23T02:04:19.833Z,27.02
2023-04-23T02:06:49.940Z,27.05
2023-04-23T02:09:17.870Z,27.10
2023-04-23T02:11:45.819Z,27.31
2023-04-23T02:14:14.957Z,27.15
2023-04-23T02:16:42.772Z,27.17
2023-04-23T02:19:12.113Z,27.50
2023-04-23T02:21:40.969Z,27.34
2023-04-23T02:24:08.846Z,27.29
2023-04-23T02:26:36.797Z,27.30
2023-04-23T02:29:09.777Z,27.53
2023-04-23T02:31:47.713Z,27.34
2023-04-23T02:34:15.761Z,27.56
2023-04-23T02:36:43.900Z,27.49
2023-04-23T02:39:12.294Z,27.57
2023-04-23T02:41:40.179Z,27.66
2023-04-23T02:44:08.116Z,27.86
2023-04-23T02:46:37.382Z,27.70
2023-04-23T02:49:07.546Z,27.73
2023-04-23T02:51:35.330Z,27.62
2023-04-23T02:54:04.229Z,27.91
2023-04-23T02:56:32.042Z,27.81
2023-04-23T02:58:59.844Z,28.07
2023-04-23T03:01:27.777Z,28.05
2023-04-23T03:03:56.917Z,28.04
2023-04-23T03:06:26.196Z,28.19
2023-04-23T03:08:54.161Z,28.24
2023-04-23T03:11:22.624Z,28.17
2023-04-23T03:13:50.558Z,28.16
2023-04-23T03:16:18.461Z,28.06
2023-04-23T03:18:46.376Z,28.44
2023-04-23T03:21:14.139Z,28.13
2023-04-23T03:23:43.301Z,28.45
2023-04-23T03:26:11.777Z,28.46
2023-04-23T03:28:39.713Z,28.42
2023-04-23T03:31:07.874Z,28.59
2023-04-23T03:33:35.738Z,28.38
2023-04-23T03:36:03.742Z,28.61
2023-04-23T03:38:31.778Z,28.61
2023-04-23T03:41:01.029Z,28.61
2023-04-23T03:43:28.851Z,28.55
2023-04-23T03:45:56.699Z,28.85
2023-04-23T03:48:24.688Z,28.89
2023-04-23T03:50:52.615Z,28.77
2023-04-23T03:53:20.443Z,28.90
2023-04-23T03:55:48.240Z,29.03
2023-04-23T03:58:17.459Z,29.12
2023-04-23T04:00:45.564Z,29.03
2023-04-23T04:03:13.552Z,29.17
2023-04-23T04:05:41.565Z,29.24
2023-04-23T04:08:09.405Z,29.37
2023-04-23T04:10:37.115Z,29.36
2023-04-23T04:13:05.165Z,29.38
2023-04-23T04:15:34.279Z,29.57
2023-04-23T04:18:02.088Z,29.47
2023-04-23T04:20:29.839Z,29.68
2023-04-23T04:22:57.780Z,29.78
2023-04-23T04:25:25.710Z,29.45
2023-04-23T04:27:53.455Z,29.86
2023-04-23T04:30:21.797Z,30.16
2023-04-23T04:32:51.011Z,30.09
2023-04-23T04:35:19.448Z,30.31
2023-04-23T04:37:47.369Z,29.97
2023-04-23T04:40:15.989Z,30.17
2023-04-23T04:42:43.884Z,30.55
2023-04-23T04:45:12.295Z,30.63
2023-04-23T04:47:40.271Z,30.84
2023-04-23T04:50:11.152Z,30.88
2023-04-23T04:52:40.167Z,30.62
2023-04-23T04:55:08.984Z,30.57
2023-04-23T04:57:36.758Z,31.34
2023-04-23T05:00:22.484Z,31.37
2023-04-23T05:02:52.466Z,31.38
2023-04-23T05:05:23.823Z,30.98
2023-04-23T05:07:51.871Z,31.11
2023-04-23T05:10:19.813Z,31.53
2023-04-23T05:12:48.185Z,31.27
2023-04-23T05:15:16.459Z,31.72
2023-04-23T05:17:45.015Z,31.87
2023-04-23T05:20:13.170Z,31.90
2023-04-23T05:22:43.201Z,32.39
2023-04-23T05:25:12.787Z,32.08
2023-04-23T05:27:41.155Z,32.03
2023-04-23T05:30:10.582Z,32.30
2023-04-23T05:32:39.049Z,32.55
2023-04-23T05:35:07.606Z,32.65
2023-04-23T05:37:35.648Z,32.39
2023-04-23T05:40:07.172Z,32.26
2023-04-23T05:42:36.813Z,33.34
2023-04-23T05:45:07.933Z,32.92
2023-04-23T05:47:36.572Z,32.85
2023-04-23T05:50:04.560Z,33.34
2023-04-23T05:52:33.579Z,33.57
2023-04-23T05:55:01.344Z,33.42
2023-04-23T05:57:30.532Z,33.59
2023-04-23T05:59:58.300Z,33.47
2023-04-23T06:02:26.554Z,33.94
2023-04-23T06:04:54.906Z,33.83
2023-04-23T06:07:22.798Z,34.33
2023-04-23T06:09:50.533Z,33.64
2023-04-23T06:12:19.068Z,33.83
2023-04-23T06:14:48.625Z,33.80
2023-04-23T06:17:16.453Z,34.47
2023-04-23T06:19:44.378Z,34.51
2023-04-23T06:22:12.209Z,34.15
2023-04-23T06:24:40.267Z,34.50
2023-04-23T06:27:08.210Z,34.31
2023-04-23T06:29:36.008Z,34.70
2023-04-23T06:32:05.305Z,34.69
2023-04-23T06:34:33.127Z,34.78
2023-04-23T06:37:01.241Z,34.86
2023-04-23T06:39:29.026Z,34.95
2023-04-23T06:41:58.154Z,35.30
2023-04-23T06:44:25.875Z,35.33
2023-04-23T06:46:53.899Z,35.34
2023-04-23T06:49:23.091Z,35.63
2023-04-23T06:51:50.885Z,35.60
2023-04-23T06:54:19.029Z,36.03
2023-04-23T06:56:46.849Z,35.93
2023-04-23T06:59:14.656Z,35.77
2023-04-23T07:01:42.498Z,35.90
2023-04-23T07:04:10.399Z,36.05
2023-04-23T07:06:39.630Z,36.06
2023-04-23T07:09:07.546Z,36.24
2023-04-23T07:11:39.097Z,36.33
2023-04-23T07:14:06.922Z,36.30
2023-04-23T07:16:34.746Z,36.34
2023-04-23T07:19:03.008Z,36.41
2023-04-23T07:21:31.028Z,36.40
2023-04-23T07:24:03.396Z,36.66
2023-04-23T07:26:31.173Z,36.66
2023-04-23T07:28:58.974Z,36.71
2023-04-23T07:31:26.878Z,36.71
2023-04-23T07:33:54.730Z,37.14
2023-04-23T07:36:22.542Z,36.78
2023-04-23T07:38:51.164Z,37.07
2023-04-23T07:41:20.593Z,37.40
2023-04-23T07:43:49.075Z,37.44
2023-04-23T07:46:16.975Z,37.58
2023-04-23T07:48:44.855Z,37.71
2023-04-23T07:51:13.350Z,37.25
2023-04-23T07:53:41.285Z,37.31
2023-04-23T07:56:09.190Z,37.81
2023-04-23T07:58:38.501Z,37.66
2023-04-23T08:01:06.478Z,37.98
2023-04-23T08:03:34.388Z,37.84
2023-04-23T08:06:04.562Z,38.14
2023-04-23T08:08:32.471Z,38.13
2023-04-23T08:11:00.389Z,38.41
2023-04-23T08:13:28.223Z,38.48
2023-04-23T08:15:57.402Z,38.52
2023-04-23T08:18:25.387Z,38.85
2023-04-23T08:20:53.173Z,38.99
2023-04-23T08:23:21.102Z,38.82
2023-04-23T08:25:48.892Z,39.13
2023-04-23T08:28:16.818Z,39.33
2023-04-23T08:30:44.622Z,39.32
2023-04-23T08:33:13.738Z,39.21
2023-04-23T08:35:41.659Z,39.33
2023-04-23T08:38:09.489Z,39.52
2023-04-23T08:40:38.686Z,40.00
2023-04-23T08:43:14.083Z,39.92
2023-04-23T08:45:42.615Z,39.53
2023-04-23T08:48:11.271Z,39.60
2023-04-23T08:50:44.377Z,39.73
2023-04-23T08:53:12.628Z,39.73
2023-04-23T08:55:41.378Z,39.69
2023-04-23T08:58:09.373Z,40.05
2023-04-23T09:00:37.402Z,40.00
2023-04-23T09:03:05.767Z,39.86
2023-04-23T09:05:34.003Z,40.19
2023-04-23T09:08:03.173Z,40.18
2023-04-23T09:10:30.991Z,40.34
2023-04-23T09:12:58.867Z,40.13
2023-04-23T09:15:26.791Z,40.20
2023-04-23T09:17:54.772Z,40.01
2023-04-23T09:20:25.614Z,40.35
2023-04-23T09:22:53.839Z,39.93
2023-04-23T09:25:24.767Z,39.98
2023-04-23T09:27:53.830Z,39.93
2023-04-23T09:30:21.899Z,40.23
2023-04-23T09:32:50.068Z,40.26
2023-04-23T09:35:19.951Z,40.27
2023-04-23T09:37:50.496Z,40.10
2023-04-23T09:40:20.047Z,40.09
2023-04-23T09:42:52.689Z,40.08
2023-04-23T09:45:21.148Z,40.17
2023-04-23T09:47:53.727Z,39.98
2023-04-23T09:50:32.700Z,40.04
2023-04-23T09:53:00.557Z,39.97
2023-04-23T09:55:35.701Z,40.13
2023-04-23T09:58:05.440Z,40.04
2023-04-23T10:00:38.206Z,39.85
2023-04-23T10:03:07.980Z,39.86
2023-04-23T10:05:59.861Z,39.65
2023-04-23T10:08:28.832Z,39.89
2023-04-23T10:11:09.406Z,39.89
2023-04-23T10:13:39.502Z,39.72
2023-04-23T10:16:21.231Z,39.94
2023-04-23T10:18:52.863Z,39.45
2023-04-23T10:21:21.553Z,39.54
2023-04-23T10:23:52.360Z,39.54
2023-04-23T10:26:24.001Z,39.48
2023-04-23T10:28:56.040Z,39.38
2023-04-23T10:31:24.633Z,39.32
2023-04-23T10:33:58.127Z,39.22
2023-04-23T10:36:29.156Z,39.05
2023-04-23T10:39:00.638Z,38.94
2023-04-23T10:41:38.404Z,38.71
2023-04-23T10:44:12.229Z,38.95
2023-04-23T10:46:40.168Z,38.83
2023-04-23T10:49:14.861Z,38.85
2023-04-23T10:54:15.724Z,38.63
2023-04-23T10:56:44.783Z,38.76
2023-04-23T10:59:23.477Z,38.76
2023-04-23T11:01:52.864Z,38.69
2023-04-23T11:04:23.038Z,38.53
2023-04-23T11:06:59.638Z,38.44
2023-04-23T11:09:32.695Z,38.22
2023-04-23T11:12:01.895Z,38.18
2023-04-23T11:14:42.618Z,38.32
2023-04-23T11:17:13.287Z,38.41
2023-04-23T11:19:42.316Z,38.43
2023-04-23T11:22:15.324Z,37.91
2023-04-23T11:24:45.955Z,37.73
2023-04-23T11:27:16.031Z,37.70
2023-04-23T11:29:46.739Z,37.93
2023-04-23T11:32:17.613Z,37.87
2023-04-23T11:34:47.711Z,37.89
2023-04-23T11:37:16.330Z,37.36
2023-04-23T11:39:45.780Z,37.55
2023-04-23T11:42:14.372Z,37.48
2023-04-23T11:44:43.463Z,37.36
2023-04-23T11:47:13.960Z,37.30
2023-04-23T11:49:42.912Z,37.35
2023-04-23T11:52:11.358Z,37.10
2023-04-23T11:54:42.067Z,37.14
2023-04-23T11:57:10.530Z,36.74
2023-04-23T11:59:38.617Z,36.66
2023-04-23T12:02:06.564Z,36.65
2023-04-23T12:04:36.948Z,36.64
2023-04-23T12:07:19.351Z,36.75
2023-04-23T12:09:51.274Z,36.55
2023-04-23T12:12:19.121Z,36.28
2023-04-23T12:14:46.943Z,36.13
2023-04-23T12:17:14.883Z,36.12
2023-04-23T12:19:45.805Z,35.85
2023-04-23T12:22:13.663Z,35.83
2023-04-23T12:24:49.030Z,35.70
2023-04-23T12:27:20.573Z,35.72
2023-04-23T12:29:48.470Z,35.66
2023-04-23T12:32:16.655Z,35.72
2023-04-23T12:34:54.431Z,35.62
2023-04-23T12:37:26.517Z,35.78
2023-04-23T12:39:56.403Z,35.69
2023-04-23T12:42:24.320Z,35.12
2023-04-23T12:44:52.516Z,35.30
2023-04-23T12:47:20.492Z,35.31
2023-04-23T12:49:53.343Z,34.86
2023-04-23T12:52:22.973Z,34.97
2023-04-23T12:54:52.703Z,35.01
2023-04-23T12:57:23.260Z,34.62
2023-04-23T12:59:51.675Z,34.48
2023-04-23T13:02:19.621Z,34.47
2023-04-23T13:04:47.518Z,34.42
2023-04-23T13:07:15.451Z,34.42
2023-04-23T13:09:44.910Z,34.48
2023-04-23T13:12:13.133Z,34.22
2023-04-23T13:14:40.955Z,34.30
2023-04-23T13:17:08.772Z,34.22
2023-04-23T13:19:39.634Z,33.80
2023-04-23T13:22:07.847Z,33.80
2023-04-23T13:24:35.833Z,33.82
2023-04-23T13:27:05.091Z,33.79
2023-04-23T13:29:33.634Z,33.70
2023-04-23T13:32:01.746Z,33.75
2023-04-23T13:34:30.854Z,33.74
2023-04-23T13:36:59.406Z,33.74
2023-04-23T13:39:27.411Z,33.65
2023-04-23T13:42:08.922Z,33.59
2023-04-23T13:44:38.624Z,33.64
2023-04-23T13:47:06.599Z,33.80
2023-04-23T13:49:34.397Z,33.47
2023-04-23T13:52:06.621Z,33.50
2023-04-23T13:54:35.529Z,33.46
2023-04-23T13:57:03.669Z,33.59
2023-04-23T13:59:31.474Z,33.56
2023-04-23T14:02:01.072Z,33.61
2023-04-23T14:04:28.934Z,33.57
2023-04-23T14:06:56.730Z,33.44
2023-04-23T14:09:24.563Z,33.54
2023-04-23T14:11:52.635Z,33.47
2023-04-23T14:14:20.552Z,33.18
2023-04-23T14:16:48.475Z,33.34
2023-04-23T14:19:18.400Z,33.31
2023-04-23T14:21:46.464Z,33.17
2023-04-23T14:24:19.387Z,33.10
2023-04-23T14:26:49.700Z,33.08
2023-04-23T14:29:26.421Z,32.98
2023-04-23T14:31:54.361Z,32.91
2023-04-23T14:34:23.544Z,32.88
2023-04-23T14:36:52.995Z,32.91
2023-04-23T14:39:23.042Z,32.78
2023-04-23T14:41:51.004Z,33.01
2023-04-23T14:44:19.236Z,32.84
2023-04-23T14:46:49.882Z,32.85
2023-04-23T14:49:17.712Z,32.72
2023-04-23T14:51:46.952Z,32.79
2023-04-23T14:54:14.828Z,32.63
2023-04-23T14:56:43.106Z,32.70
2023-04-23T14:59:11.236Z,32.66
2023-04-23T15:01:39.237Z,32.64
2023-04-23T15:04:07.152Z,32.73
2023-04-23T15:06:35.024Z,32.56
2023-04-23T15:09:04.281Z,32.53
2023-04-23T15:11:33.022Z,32.65
2023-04-23T15:14:04.825Z,32.49
2023-04-23T15:19:07.436Z,32.61
2023-04-23T15:21:36.403Z,32.71
2023-04-23T15:24:07.783Z,32.74
2023-04-23T15:26:36.338Z,32.67
2023-04-23T15:29:04.993Z,32.64
2023-04-23T15:31:33.069Z,32.64
2023-04-23T15:34:01.337Z,32.64
2023-04-23T15:36:29.105Z,32.63
2023-04-23T15:38:56.883Z,32.72
2023-04-23T15:41:27.221Z,32.53
2023-04-23T15:43:55.555Z,32.61
2023-04-23T15:46:23.364Z,32.44
2023-04-23T15:48:51.200Z,32.66
2023-04-23T15:51:19.020Z,32.67
2023-04-23T15:53:47.046Z,32.57
2023-04-23T15:56:14.881Z,32.70
2023-04-23T15:58:44.049Z,32.60
2023-04-23T16:01:11.913Z,32.51
2023-04-23T16:03:39.986Z,32.57
2023-04-23T16:06:09.049Z,32.54
2023-04-23T16:08:38.301Z,32.61
2023-04-23T16:11:07.281Z,32.36
2023-04-23T16:13:35.417Z,32.75
2023-04-23T16:16:04.860Z,32.73
2023-04-23T16:18:32.807Z,32.53
2023-04-23T16:21:01.481Z,32.83
2023-04-23T16:23:29.459Z,32.48
2023-04-23T16:25:57.740Z,32.61
2023-04-23T16:28:25.534Z,32.41
2023-04-23T16:30:53.387Z,32.61
2023-04-23T16:33:24.083Z,32.67
2023-04-23T16:35:51.869Z,32.55
2023-04-23T16:38:19.624Z,32.71
2023-04-23T16:40:47.534Z,32.69
2023-04-23T16:43:15.440Z,32.58
2023-04-23T16:45:43.255Z,32.81
2023-04-23T16:48:13.076Z,32.48
2023-04-23T16:50:43.106Z,32.38
2023-04-23T16:53:11.204Z,32.81
2023-04-23T16:55:39.043Z,32.78
2023-04-23T16:58:07.041Z,32.48
2023-04-23T17:00:34.837Z,32.68
2023-04-23T17:03:02.761Z,32.84
2023-04-23T17:05:35.043Z,32.62
2023-04-23T17:08:04.218Z,32.80
2023-04-23T17:10:32.084Z,32.62
2023-04-23T17:12:59.926Z,32.53
2023-04-23T17:15:27.801Z,32.63
2023-04-23T17:17:56.818Z,32.43
2023-04-23T17:20:24.670Z,32.49
2023-04-23T17:22:52.548Z,32.88
2023-04-23T17:25:22.323Z,32.67
2023-04-23T17:27:50.188Z,32.57
2023-04-23T17:30:18.143Z,32.95
2023-04-23T17:32:46.005Z,32.79
2023-04-23T17:35:13.891Z,32.66
2023-04-23T17:37:41.670Z,32.72
2023-04-23T17:40:10.869Z,32.84
2023-04-23T17:42:40.136Z,32.71
2023-04-23T17:45:08.953Z,32.83
2023-04-23T17:47:37.457Z,32.84
2023-04-23T17:50:06.342Z,32.73
2023-04-23T17:52:34.350Z,32.90
2023-04-23T17:55:02.102Z,32.91
2023-04-23T17:57:29.898Z,32.77
2023-04-23T18:00:02.113Z,32.70
2023-04-23T18:02:30.171Z,32.83
2023-04-23T18:04:59.334Z,32.84
2023-04-23T18:07:27.219Z,32.82
2023-04-23T18:09:54.936Z,32.87
2023-04-23T18:12:22.727Z,33.01
2023-04-23T18:14:50.663Z,32.58
2023-04-23T18:17:19.849Z,32.60
2023-04-23T18:19:49.032Z,32.58
2023-04-23T18:22:18.979Z,32.55
2023-04-23T18:24:47.287Z,33.10
2023-04-23T18:27:15.725Z,32.72
2023-04-23T18:29:44.052Z,32.85
2023-04-23T18:32:20.971Z,33.09
2023-04-23T18:34:53.416Z,32.93
2023-04-23T18:37:33.834Z,33.33
2023-04-23T18:40:01.639Z,32.81
2023-04-23T18:42:29.517Z,32.62
2023-04-23T18:44:57.382Z,32.83
2023-04-23T18:47:31.454Z,32.73
2023-04-23T18:50:05.294Z,32.99
2023-04-23T18:52:33.537Z,32.69
2023-04-23T18:55:01.932Z,33.26
2023-04-23T18:57:29.684Z,33.14
2023-04-23T18:59:57.390Z,32.78
2023-04-23T19:02:35.105Z,32.90
2023-04-23T19:05:05.735Z,32.98
2023-04-23T19:07:37.341Z,33.18
2023-04-23T19:10:05.734Z,33.05
2023-04-23T19:12:33.544Z,33.20
2023-04-23T19:15:01.317Z,32.71
2023-04-23T19:17:29.153Z,33.08
2023-04-23T19:19:57.056Z,33.61
2023-04-23T19:22:26.379Z,33.38
2023-04-23T19:24:54.521Z,33.17
2023-04-23T19:27:22.452Z,33.03
2023-04-23T19:29:52.434Z,33.02
2023-04-23T19:32:20.210Z,33.20
2023-04-23T19:34:47.998Z,33.08
2023-04-23T19:37:15.820Z,33.31
2023-04-23T19:39:45.328Z,33.45
2023-04-23T19:42:13.215Z,33.47
2023-04-23T19:44:40.969Z,33.68
2023-04-23T19:47:08.959Z,33.92
2023-04-23T19:49:36.824Z,33.51
2023-04-23T19:52:05.244Z,33.81
2023-04-23T19:54:33.002Z,33.83
2023-04-23T19:57:03.426Z,34.01
2023-04-23T19:59:31.510Z,34.07
2023-04-23T20:01:59.268Z,34.00
2023-04-23T20:04:27.200Z,33.73
2023-04-23T20:06:55.322Z,33.71
2023-04-23T20:09:25.179Z,34.18
2023-04-23T20:11:53.572Z,33.86
2023-04-23T20:14:22.997Z,34.31
2023-04-23T20:16:50.961Z,34.38
2023-04-23T20:19:19.308Z,34.19
2023-04-23T20:21:47.344Z,34.49
2023-04-23T20:24:17.297Z,34.10
2023-04-23T20:26:45.089Z,34.59
2023-04-23T20:29:13.502Z,34.87
2023-04-23T20:31:42.842Z,34.34
2023-04-23T20:34:11.108Z,34.45
2023-04-23T20:36:38.966Z,34.75
2023-04-23T20:39:06.894Z,34.75
2023-04-23T20:41:36.640Z,35.06
2023-04-23T20:44:06.016Z,34.88
2023-04-23T20:46:34.211Z,34.97
2023-04-23T20:49:04.073Z,34.89
2023-04-23T20:51:34.288Z,35.06
2023-04-23T20:54:03.065Z,35.21
2023-04-23T20:56:31.585Z,35.43
2023-04-23T20:58:59.540Z,35.39
2023-04-23T21:01:27.770Z,35.36
2023-04-23T21:03:56.919Z,35.66
2023-04-23T21:06:26.356Z,35.42
2023-04-23T21:08:54.158Z,35.67
2023-04-23T21:11:22.107Z,35.54
2023-04-23T21:13:50.123Z,35.46
2023-04-23T21:16:19.083Z,35.45
2023-04-23T21:18:47.598Z,35.76
2023-04-23T21:21:15.493Z,35.66
2023-04-23T21:23:44.623Z,35.93
2023-04-23T21:26:13.128Z,35.95
2023-04-23T21:28:41.003Z,36.28
2023-04-23T21:31:14.814Z,36.57
2023-04-23T21:33:42.680Z,36.13
2023-04-23T21:36:10.768Z,36.41
2023-04-23T21:38:38.542Z,36.36
2023-04-23T21:41:08.651Z,36.34
2023-04-23T21:43:36.386Z,36.44
2023-04-23T21:46:04.236Z,36.41
2023-04-23T21:48:33.487Z,36.43
2023-04-23T21:51:02.310Z,36.73
2023-04-23T21:53:30.224Z,36.70
2023-04-23T21:55:58.383Z,36.57
2023-04-23T21:58:28.175Z,36.98
2023-04-23T22:00:56.095Z,36.53
2023-04-23T22:03:38.344Z,37.28
2023-04-23T22:06:08.110Z,36.91
2023-04-23T22:08:38.006Z,36.99
2023-04-23T22:11:06.887Z,36.84
2023-04-23T22:13:36.604Z,37.58
2023-04-23T22:16:10.707Z,37.30
2023-04-23T22:18:44.775Z,37.46
2023-04-23T22:21:13.309Z,37.48
2023-04-23T22:23:41.240Z,37.65
2023-04-23T22:26:09.015Z,37.53
2023-04-23T22:28:38.184Z,37.53
2023-04-23T22:31:06.049Z,37.16
2023-04-23T22:33:35.039Z,37.24
2023-04-23T22:36:02.996Z,38.18
2023-04-23T22:38:30.805Z,37.81
2023-04-23T22:40:58.607Z,37.49
2023-04-23T22:43:44.152Z,37.60
2023-04-23T22:46:13.942Z,37.85
2023-04-23T22:48:44.671Z,38.27
2023-04-23T22:51:12.731Z,37.84
2023-04-23T22:53:40.614Z,38.21
2023-04-23T22:56:08.589Z,37.82
2023-04-23T22:58:37.106Z,38.29
2023-04-23T23:01:05.195Z,38.03
2023-04-23T23:03:34.471Z,38.10
2023-04-23T23:06:03.042Z,39.07
2023-04-23T23:08:30.844Z,39.15
2023-04-23T23:10:58.634Z,38.68
2023-04-23T23:13:26.526Z,38.86
2023-04-23T23:15:54.373Z,38.62
2023-04-23T23:18:22.152Z,38.83
2023-04-23T23:20:51.436Z,39.44
2023-04-23T23:23:19.420Z,39.14
2023-04-23T23:25:47.197Z,39.05
2023-04-23T23:28:14.998Z,39.30
2023-04-23T23:30:43.390Z,39.61
2023-04-23T23:33:13.911Z,39.25
2023-04-23T23:35:43.531Z,39.15
2023-04-23T23:38:12.955Z,39.88
2023-04-23T23:40:40.993Z,39.38
2023-04-23T23:43:08.949Z,39.70
2023-04-23T23:45:36.761Z,39.37
2023-04-23T23:48:05.686Z,39.54
2023-04-23T23:50:33.750Z,40.02
2023-04-23T23:53:06.305Z,40.19
2023-04-23T23:55:37.679Z,40.09
2023-04-23T23:58:06.219Z,40.46
